sensor_id;sensor_type;location;lat;lon;timestamp;P1;durP1;ratioP1;P2;durP2;ratioP2
67798;SDS011;54596;43.216;27.904;2023-10-08T00:02:03;27.05;;;9.02;;
67798;SDS011;54596;43.216;27.904;2023-10-08T00:04:31;28.55;;;9.10;;
67798;SDS011;54596;43.216;27.904;2023-10-08T00:07:02;22.88;;;8.38;;
67798;SDS011;54596;43.216;27.904;2023-10-08T00:09:33;23.77;;;8.05;;
67798;SDS011;54596;43.216;27.904;2023-10-08T00:12:00;22.92;;;7.93;;
67798;SDS011;54596;43.216;27.904;2023-10-08T00:14:27;32.83;;;8.35;;
67798;SDS011;54596;43.216;27.904;2023-10-08T00:16:53;22.27;;;8.23;;
67798;SDS011;54596;43.216;27.904;2023-10-08T00:19:19;18.95;;;7.50;;
67798;SDS011;54596;43.216;27.904;2023-10-08T00:21:44;22.40;;;7.70;;
67798;SDS011;54596;43.216;27.904;2023-10-08T00:24:10;21.45;;;7.20;;
67798;SDS011;54596;43.216;27.904;2023-10-08T00:26:37;18.80;;;7.35;;
67798;SDS011;54596;43.216;27.904;2023-10-08T00:29:05;17.17;;;6.47;;
67798;SDS011;54596;43.216;27.904;2023-10-08T00:31:41;18.35;;;6.50;;
67798;SDS011;54596;43.216;27.904;2023-10-08T00:34:07;14.63;;;6.18;;
67798;SDS011;54596;43.216;27.904;2023-10-08T00:36:44;20.27;;;6.30;;
67798;SDS011;54596;43.216;27.904;2023-10-08T00:39:11;18.60;;;6.15;;
67798;SDS011;54596;43.216;27.904;2023-10-08T00:41:48;16.58;;;5.72;;
67798;SDS011;54596;43.216;27.904;2023-10-08T00:44:15;14.38;;;5.97;;
67798;SDS011;54596;43.216;27.904;2023-10-08T00:49:13;17.10;;;6.22;;
67798;SDS011;54596;43.216;27.904;2023-10-08T00:51:47;17.65;;;5.85;;
67798;SDS011;54596;43.216;27.904;2023-10-08T00:54:21;15.95;;;6.10;;
67798;SDS011;54596;43.216;27.904;2023-10-08T00:56:46;16.15;;;6.40;;
67798;SDS011;54596;43.216;27.904;2023-10-08T00:59:22;16.83;;;6.60;;
67798;SDS011;54596;43.216;27.904;2023-10-08T01:01:50;17.75;;;6.72;;
67798;SDS011;54596;43.216;27.904;2023-10-08T01:04:20;20.42;;;6.30;;
67798;SDS011;54596;43.216;27.904;2023-10-08T01:06:49;19.50;;;7.10;;
67798;SDS011;54596;43.216;27.904;2023-10-08T01:09:20;16.35;;;6.25;;
67798;SDS011;54596;43.216;27.904;2023-10-08T01:12:11;17.23;;;6.82;;
67798;SDS011;54596;43.216;27.904;2023-10-08T01:14:44;16.95;;;7.00;;
67798;SDS011;54596;43.216;27.904;2023-10-08T01:17:15;19.42;;;7.18;;
67798;SDS011;54596;43.216;27.904;2023-10-08T01:19:43;17.23;;;7.00;;
67798;SDS011;54596;43.216;27.904;2023-10-08T01:22:13;16.38;;;7.22;;
67798;SDS011;54596;43.216;27.904;2023-10-08T01:24:43;18.98;;;8.07;;
67798;SDS011;54596;43.216;27.904;2023-10-08T01:27:15;20.52;;;8.55;;
67798;SDS011;54596;43.216;27.904;2023-10-08T01:29:47;17.67;;;8.50;;
67798;SDS011;54596;43.216;27.904;2023-10-08T01:32:15;20.40;;;9.00;;
67798;SDS011;54596;43.216;27.904;2023-10-08T01:34:42;23.60;;;8.25;;
67798;SDS011;54596;43.216;27.904;2023-10-08T01:37:17;17.55;;;7.80;;
67798;SDS011;54596;43.216;27.904;2023-10-08T01:39:44;19.23;;;7.00;;
67798;SDS011;54596;43.216;27.904;2023-10-08T01:42:10;22.02;;;6.95;;
67798;SDS011;54596;43.216;27.904;2023-10-08T01:44:49;19.10;;;6.97;;
67798;SDS011;54596;43.216;27.904;2023-10-08T01:47:16;15.30;;;6.15;;
67798;SDS011;54596;43.216;27.904;2023-10-08T01:49:42;14.60;;;6.55;;
67798;SDS011;54596;43.216;27.904;2023-10-08T01:52:13;16.30;;;6.30;;
67798;SDS011;54596;43.216;27.904;2023-10-08T01:54:46;13.85;;;6.25;;
67798;SDS011;54596;43.216;27.904;2023-10-08T01:57:12;18.75;;;6.07;;
67798;SDS011;54596;43.216;27.904;2023-10-08T01:59:37;17.15;;;6.40;;
67798;SDS011;54596;43.216;27.904;2023-10-08T02:02:04;16.48;;;5.97;;
67798;SDS011;54596;43.216;27.904;2023-10-08T02:04:34;12.15;;;5.40;;
67798;SDS011;54596;43.216;27.904;2023-10-08T02:07:00;14.90;;;5.72;;
67798;SDS011;54596;43.216;27.904;2023-10-08T02:09:32;16.95;;;6.03;;
67798;SDS011;54596;43.216;27.904;2023-10-08T02:11:58;19.05;;;6.43;;
67798;SDS011;54596;43.216;27.904;2023-10-08T02:14:24;22.75;;;6.93;;
67798;SDS011;54596;43.216;27.904;2023-10-08T02:16:50;21.70;;;7.35;;
67798;SDS011;54596;43.216;27.904;2023-10-08T02:19:21;24.25;;;7.63;;
67798;SDS011;54596;43.216;27.904;2023-10-08T02:21:52;16.42;;;6.65;;
67798;SDS011;54596;43.216;27.904;2023-10-08T02:24:21;17.75;;;6.97;;
67798;SDS011;54596;43.216;27.904;2023-10-08T02:26:50;20.75;;;7.13;;
67798;SDS011;54596;43.216;27.904;2023-10-08T02:29:16;23.40;;;6.82;;
67798;SDS011;54596;43.216;27.904;2023-10-08T02:31:42;18.90;;;6.70;;
67798;SDS011;54596;43.216;27.904;2023-10-08T02:34:08;18.58;;;6.75;;
67798;SDS011;54596;43.216;27.904;2023-10-08T02:36:38;15.90;;;6.35;;
67798;SDS011;54596;43.216;27.904;2023-10-08T02:39:07;19.77;;;6.35;;
67798;SDS011;54596;43.216;27.904;2023-10-08T02:41:43;16.73;;;5.97;;
67798;SDS011;54596;43.216;27.904;2023-10-08T02:44:15;20.13;;;6.10;;
67798;SDS011;54596;43.216;27.904;2023-10-08T02:46:45;11.75;;;5.22;;
67798;SDS011;54596;43.216;27.904;2023-10-08T02:49:18;14.50;;;5.45;;
67798;SDS011;54596;43.216;27.904;2023-10-08T02:51:53;15.85;;;5.60;;
67798;SDS011;54596;43.216;27.904;2023-10-08T02:54:20;12.48;;;5.40;;
67798;SDS011;54596;43.216;27.904;2023-10-08T02:56:49;13.85;;;5.22;;
67798;SDS011;54596;43.216;27.904;2023-10-08T02:59:32;12.73;;;5.00;;
67798;SDS011;54596;43.216;27.904;2023-10-08T03:02:08;11.82;;;4.82;;
67798;SDS011;54596;43.216;27.904;2023-10-08T03:04:44;14.30;;;4.95;;
67798;SDS011;54596;43.216;27.904;2023-10-08T03:07:11;13.23;;;4.82;;
67798;SDS011;54596;43.216;27.904;2023-10-08T03:09:57;13.90;;;5.20;;
67798;SDS011;54596;43.216;27.904;2023-10-08T03:12:41;11.27;;;4.80;;
67798;SDS011;54596;43.216;27.904;2023-10-08T03:15:08;12.07;;;5.25;;
67798;SDS011;54596;43.216;27.904;2023-10-08T03:17:53;14.43;;;5.28;;
67798;SDS011;54596;43.216;27.904;2023-10-08T03:20:19;11.23;;;4.95;;
67798;SDS011;54596;43.216;27.904;2023-10-08T03:23:06;12.13;;;4.85;;
67798;SDS011;54596;43.216;27.904;2023-10-08T03:25:59;12.93;;;5.32;;
67798;SDS011;54596;43.216;27.904;2023-10-08T03:28:36;11.25;;;4.88;;
67798;SDS011;54596;43.216;27.904;2023-10-08T03:31:02;11.90;;;5.10;;
67798;SDS011;54596;43.216;27.904;2023-10-08T03:33:38;13.38;;;5.15;;
67798;SDS011;54596;43.216;27.904;2023-10-08T03:36:05;12.98;;;5.30;;
67798;SDS011;54596;43.216;27.904;2023-10-08T03:38:54;14.85;;;5.07;;
67798;SDS011;54596;43.216;27.904;2023-10-08T03:41:24;16.00;;;5.90;;
67798;SDS011;54596;43.216;27.904;2023-10-08T03:43:54;16.77;;;6.30;;
67798;SDS011;54596;43.216;27.904;2023-10-08T03:46:37;16.67;;;8.07;;
67798;SDS011;54596;43.216;27.904;2023-10-08T03:49:10;16.70;;;8.82;;
67798;SDS011;54596;43.216;27.904;2023-10-08T03:51:48;17.15;;;8.60;;
67798;SDS011;54596;43.216;27.904;2023-10-08T03:54:20;15.75;;;8.15;;
67798;SDS011;54596;43.216;27.904;2023-10-08T03:59:25;14.75;;;6.15;;
67798;SDS011;54596;43.216;27.904;2023-10-08T04:01:54;16.77;;;7.28;;
67798;SDS011;54596;43.216;27.904;2023-10-08T04:04:24;18.92;;;8.15;;
67798;SDS011;54596;43.216;27.904;2023-10-08T04:06:56;19.92;;;8.95;;
67798;SDS011;54596;43.216;27.904;2023-10-08T04:09:42;19.58;;;8.85;;
67798;SDS011;54596;43.216;27.904;2023-10-08T04:12:07;20.77;;;9.18;;
67798;SDS011;54596;43.216;27.904;2023-10-08T04:14:36;25.45;;;10.32;;
67798;SDS011;54596;43.216;27.904;2023-10-08T04:17:02;32.20;;;10.68;;
67798;SDS011;54596;43.216;27.904;2023-10-08T04:19:29;21.70;;;9.30;;
67798;SDS011;54596;43.216;27.904;2023-10-08T04:21:55;16.23;;;8.20;;
67798;SDS011;54596;43.216;27.904;2023-10-08T04:24:25;16.25;;;7.50;;
67798;SDS011;54596;43.216;27.904;2023-10-08T04:27:09;16.38;;;7.35;;
67798;SDS011;54596;43.216;27.904;2023-10-08T04:29:35;18.02;;;7.35;;
67798;SDS011;54596;43.216;27.904;2023-10-08T04:32:04;16.00;;;7.25;;
67798;SDS011;54596;43.216;27.904;2023-10-08T04:37:02;18.27;;;6.65;;
67798;SDS011;54596;43.216;27.904;2023-10-08T04:39:36;19.42;;;6.43;;
67798;SDS011;54596;43.216;27.904;2023-10-08T04:42:04;14.48;;;6.60;;
67798;SDS011;54596;43.216;27.904;2023-10-08T04:44:37;14.43;;;6.32;;
67798;SDS011;54596;43.216;27.904;2023-10-08T04:47:07;14.60;;;5.85;;
67798;SDS011;54596;43.216;27.904;2023-10-08T04:49:34;15.73;;;5.90;;
67798;SDS011;54596;43.216;27.904;2023-10-08T04:52:06;14.95;;;6.32;;
67798;SDS011;54596;43.216;27.904;2023-10-08T04:54:52;15.48;;;7.60;;
67798;SDS011;54596;43.216;27.904;2023-10-08T04:57:19;18.48;;;8.13;;
67798;SDS011;54596;43.216;27.904;2023-10-08T04:59:51;16.90;;;7.97;;
67798;SDS011;54596;43.216;27.904;2023-10-08T05:02:18;17.50;;;8.43;;
67798;SDS011;54596;43.216;27.904;2023-10-08T05:05:14;18.25;;;8.77;;
67798;SDS011;54596;43.216;27.904;2023-10-08T05:07:39;20.05;;;8.75;;
67798;SDS011;54596;43.216;27.904;2023-10-08T05:10:12;17.23;;;8.25;;
67798;SDS011;54596;43.216;27.904;2023-10-08T05:12:50;16.13;;;8.00;;
67798;SDS011;54596;43.216;27.904;2023-10-08T05:15:37;19.65;;;7.45;;
67798;SDS011;54596;43.216;27.904;2023-10-08T05:18:27;18.55;;;8.73;;
67798;SDS011;54596;43.216;27.904;2023-10-08T05:21:13;18.83;;;8.27;;
67798;SDS011;54596;43.216;27.904;2023-10-08T05:23:51;19.02;;;9.27;;
67798;SDS011;54596;43.216;27.904;2023-10-08T05:26:35;30.67;;;10.20;;
67798;SDS011;54596;43.216;27.904;2023-10-08T05:29:07;22.98;;;9.75;;
67798;SDS011;54596;43.216;27.904;2023-10-08T05:31:52;19.15;;;10.55;;
67798;SDS011;54596;43.216;27.904;2023-10-08T05:34:38;22.48;;;13.05;;
67798;SDS011;54596;43.216;27.904;2023-10-08T05:37:16;25.15;;;14.05;;
67798;SDS011;54596;43.216;27.904;2023-10-08T05:39:57;31.60;;;15.47;;
67798;SDS011;54596;43.216;27.904;2023-10-08T05:42:37;24.02;;;13.77;;
67798;SDS011;54596;43.216;27.904;2023-10-08T05:45:11;26.65;;;13.68;;
67798;SDS011;54596;43.216;27.904;2023-10-08T05:47:37;22.00;;;11.93;;
67798;SDS011;54596;43.216;27.904;2023-10-08T05:50:03;21.73;;;11.82;;
67798;SDS011;54596;43.216;27.904;2023-10-08T05:52:45;24.75;;;11.68;;
67798;SDS011;54596;43.216;27.904;2023-10-08T05:55:29;27.35;;;14.10;;
67798;SDS011;54596;43.216;27.904;2023-10-08T05:58:12;23.55;;;13.23;;
67798;SDS011;54596;43.216;27.904;2023-10-08T06:00:42;22.13;;;12.27;;
67798;SDS011;54596;43.216;27.904;2023-10-08T06:03:14;20.30;;;9.45;;
67798;SDS011;54596;43.216;27.904;2023-10-08T06:05:59;15.27;;;7.43;;
67798;SDS011;54596;43.216;27.904;2023-10-08T06:08:50;15.48;;;6.50;;
67798;SDS011;54596;43.216;27.904;2023-10-08T06:11:46;16.13;;;6.18;;
67798;SDS011;54596;43.216;27.904;2023-10-08T06:14:30;17.42;;;6.82;;
67798;SDS011;54596;43.216;27.904;2023-10-08T06:17:17;15.57;;;7.20;;
67798;SDS011;54596;43.216;27.904;2023-10-08T06:20:00;16.63;;;8.77;;
67798;SDS011;54596;43.216;27.904;2023-10-08T06:22:34;18.67;;;8.95;;
67798;SDS011;54596;43.216;27.904;2023-10-08T06:25:00;22.60;;;8.88;;
67798;SDS011;54596;43.216;27.904;2023-10-08T06:27:40;18.80;;;8.45;;
67798;SDS011;54596;43.216;27.904;2023-10-08T06:30:06;25.60;;;9.95;;
67798;SDS011;54596;43.216;27.904;2023-10-08T06:32:42;24.92;;;9.68;;
67798;SDS011;54596;43.216;27.904;2023-10-08T06:35:09;18.65;;;8.82;;
67798;SDS011;54596;43.216;27.904;2023-10-08T06:37:42;19.02;;;8.10;;
67798;SDS011;54596;43.216;27.904;2023-10-08T06:40:14;20.15;;;8.82;;
67798;SDS011;54596;43.216;27.904;2023-10-08T06:43:13;18.73;;;9.00;;
67798;SDS011;54596;43.216;27.904;2023-10-08T06:45:59;20.52;;;8.77;;
67798;SDS011;54596;43.216;27.904;2023-10-08T06:48:25;19.20;;;8.20;;
67798;SDS011;54596;43.216;27.904;2023-10-08T06:50:54;19.45;;;7.47;;
67798;SDS011;54596;43.216;27.904;2023-10-08T06:53:23;19.50;;;7.63;;
67798;SDS011;54596;43.216;27.904;2023-10-08T06:55:49;17.35;;;7.68;;
67798;SDS011;54596;43.216;27.904;2023-10-08T06:58:22;34.50;;;8.88;;
67798;SDS011;54596;43.216;27.904;2023-10-08T07:00:49;20.95;;;7.40;;
67798;SDS011;54596;43.216;27.904;2023-10-08T07:03:15;68.97;;;8.00;;
67798;SDS011;54596;43.216;27.904;2023-10-08T07:05:43;35.67;;;5.95;;
67798;SDS011;54596;43.216;27.904;2023-10-08T07:08:20;36.03;;;6.75;;
67798;SDS011;54596;43.216;27.904;2023-10-08T07:10:48;25.67;;;6.18;;
67798;SDS011;54596;43.216;27.904;2023-10-08T07:13:17;19.00;;;5.55;;
67798;SDS011;54596;43.216;27.904;2023-10-08T07:15:45;29.52;;;5.82;;
67798;SDS011;54596;43.216;27.904;2023-10-08T07:18:11;20.77;;;5.78;;
67798;SDS011;54596;43.216;27.904;2023-10-08T07:20:44;17.55;;;5.63;;
67798;SDS011;54596;43.216;27.904;2023-10-08T07:23:11;32.78;;;6.03;;
67798;SDS011;54596;43.216;27.904;2023-10-08T07:25:57;23.35;;;5.38;;
67798;SDS011;54596;43.216;27.904;2023-10-08T07:28:35;22.20;;;5.82;;
67798;SDS011;54596;43.216;27.904;2023-10-08T07:31:14;90.63;;;9.48;;
67798;SDS011;54596;43.216;27.904;2023-10-08T07:33:47;26.60;;;5.82;;
67798;SDS011;54596;43.216;27.904;2023-10-08T07:36:40;47.15;;;7.22;;
67798;SDS011;54596;43.216;27.904;2023-10-08T07:39:06;45.80;;;6.82;;
67798;SDS011;54596;43.216;27.904;2023-10-08T07:41:33;20.17;;;5.55;;
67798;SDS011;54596;43.216;27.904;2023-10-08T07:43:59;33.13;;;6.05;;
67798;SDS011;54596;43.216;27.904;2023-10-08T07:46:25;60.25;;;7.25;;
67798;SDS011;54596;43.216;27.904;2023-10-08T07:48:54;17.52;;;5.68;;
67798;SDS011;54596;43.216;27.904;2023-10-08T07:51:20;16.65;;;5.45;;
67798;SDS011;54596;43.216;27.904;2023-10-08T07:53:49;31.33;;;5.82;;
67798;SDS011;54596;43.216;27.904;2023-10-08T07:56:22;31.70;;;6.40;;
67798;SDS011;54596;43.216;27.904;2023-10-08T07:58:49;43.38;;;7.65;;
67798;SDS011;54596;43.216;27.904;2023-10-08T08:01:14;37.63;;;6.93;;
67798;SDS011;54596;43.216;27.904;2023-10-08T08:03:40;46.90;;;7.30;;
67798;SDS011;54596;43.216;27.904;2023-10-08T08:06:07;35.45;;;6.93;;
67798;SDS011;54596;43.216;27.904;2023-10-08T08:08:36;31.27;;;5.93;;
67798;SDS011;54596;43.216;27.904;2023-10-08T08:11:03;21.45;;;6.00;;
67798;SDS011;54596;43.216;27.904;2023-10-08T08:13:35;33.75;;;6.53;;
67798;SDS011;54596;43.216;27.904;2023-10-08T08:16:01;25.90;;;6.10;;
67798;SDS011;54596;43.216;27.904;2023-10-08T08:18:47;29.67;;;6.35;;
67798;SDS011;54596;43.216;27.904;2023-10-08T08:21:14;37.80;;;8.23;;
67798;SDS011;54596;43.216;27.904;2023-10-08T08:23:44;129.55;;;11.15;;
67798;SDS011;54596;43.216;27.904;2023-10-08T08:26:23;44.25;;;6.50;;
67798;SDS011;54596;43.216;27.904;2023-10-08T08:28:55;33.47;;;6.68;;
67798;SDS011;54596;43.216;27.904;2023-10-08T08:31:25;34.92;;;6.70;;
67798;SDS011;54596;43.216;27.904;2023-10-08T08:33:51;27.38;;;6.38;;
67798;SDS011;54596;43.216;27.904;2023-10-08T08:36:18;31.67;;;6.43;;
67798;SDS011;54596;43.216;27.904;2023-10-08T08:38:44;20.48;;;6.53;;
67798;SDS011;54596;43.216;27.904;2023-10-08T08:41:10;20.80;;;6.00;;
67798;SDS011;54596;43.216;27.904;2023-10-08T08:43:38;22.35;;;5.97;;
67798;SDS011;54596;43.216;27.904;2023-10-08T08:46:09;19.58;;;5.80;;
67798;SDS011;54596;43.216;27.904;2023-10-08T08:48:38;23.50;;;6.30;;
67798;SDS011;54596;43.216;27.904;2023-10-08T08:51:05;22.90;;;6.88;;
67798;SDS011;54596;43.216;27.904;2023-10-08T08:53:38;21.70;;;5.70;;
67798;SDS011;54596;43.216;27.904;2023-10-08T08:56:08;21.55;;;6.15;;
67798;SDS011;54596;43.216;27.904;2023-10-08T08:58:34;13.60;;;5.47;;
67798;SDS011;54596;43.216;27.904;2023-10-08T09:01:01;31.80;;;6.40;;
67798;SDS011;54596;43.216;27.904;2023-10-08T09:03:29;20.95;;;6.50;;
67798;SDS011;54596;43.216;27.904;2023-10-08T09:06:01;24.50;;;6.85;;
67798;SDS011;54596;43.216;27.904;2023-10-08T09:08:33;14.45;;;5.82;;
67798;SDS011;54596;43.216;27.904;2023-10-08T09:11:02;20.45;;;6.13;;
67798;SDS011;54596;43.216;27.904;2023-10-08T09:13:32;26.10;;;6.30;;
67798;SDS011;54596;43.216;27.904;2023-10-08T09:18:40;18.40;;;5.93;;
67798;SDS011;54596;43.216;27.904;2023-10-08T09:21:11;18.80;;;5.68;;
67798;SDS011;54596;43.216;27.904;2023-10-08T09:23:39;34.28;;;6.65;;
67798;SDS011;54596;43.216;27.904;2023-10-08T09:26:08;21.95;;;6.38;;
67798;SDS011;54596;43.216;27.904;2023-10-08T09:28:34;23.20;;;5.43;;
67798;SDS011;54596;43.216;27.904;2023-10-08T09:31:03;27.48;;;9.52;;
67798;SDS011;54596;43.216;27.904;2023-10-08T09:33:31;24.85;;;6.30;;
67798;SDS011;54596;43.216;27.904;2023-10-08T09:35:58;19.75;;;5.45;;
67798;SDS011;54596;43.216;27.904;2023-10-08T09:38:27;17.75;;;5.80;;
67798;SDS011;54596;43.216;27.904;2023-10-08T09:40:55;16.02;;;5.53;;
67798;SDS011;54596;43.216;27.904;2023-10-08T09:43:20;17.42;;;6.50;;
67798;SDS011;54596;43.216;27.904;2023-10-08T09:45:50;19.33;;;5.47;;
67798;SDS011;54596;43.216;27.904;2023-10-08T09:48:21;15.80;;;7.07;;
67798;SDS011;54596;43.216;27.904;2023-10-08T09:50:50;20.10;;;6.97;;
67798;SDS011;54596;43.216;27.904;2023-10-08T09:53:19;20.55;;;6.13;;
67798;SDS011;54596;43.216;27.904;2023-10-08T09:55:54;24.00;;;7.40;;
67798;SDS011;54596;43.216;27.904;2023-10-08T09:58:21;25.33;;;6.60;;
67798;SDS011;54596;43.216;27.904;2023-10-08T10:00:49;16.90;;;5.55;;
67798;SDS011;54596;43.216;27.904;2023-10-08T10:03:17;18.95;;;6.00;;
67798;SDS011;54596;43.216;27.904;2023-10-08T10:05:44;22.08;;;6.13;;
67798;SDS011;54596;43.216;27.904;2023-10-08T10:08:10;24.25;;;6.05;;
67798;SDS011;54596;43.216;27.904;2023-10-08T10:10:36;17.25;;;5.70;;
67798;SDS011;54596;43.216;27.904;2023-10-08T10:13:09;22.60;;;6.30;;
67798;SDS011;54596;43.216;27.904;2023-10-08T10:15:36;14.43;;;6.78;;
67798;SDS011;54596;43.216;27.904;2023-10-08T10:18:09;37.88;;;7.20;;
67798;SDS011;54596;43.216;27.904;2023-10-08T10:20:39;19.83;;;5.45;;
67798;SDS011;54596;43.216;27.904;2023-10-08T10:31:40;16.33;;;5.25;;
67798;SDS011;54596;43.216;27.904;2023-10-08T10:34:15;15.60;;;5.22;;
67798;SDS011;54596;43.216;27.904;2023-10-08T10:36:43;15.25;;;5.15;;
67798;SDS011;54596;43.216;27.904;2023-10-08T10:39:13;19.80;;;4.70;;
67798;SDS011;54596;43.216;27.904;2023-10-08T10:41:51;16.63;;;5.00;;
67798;SDS011;54596;43.216;27.904;2023-10-08T10:44:22;16.38;;;5.30;;
67798;SDS011;54596;43.216;27.904;2023-10-08T10:46:49;23.20;;;5.68;;
67798;SDS011;54596;43.216;27.904;2023-10-08T10:49:20;16.70;;;4.85;;
67798;SDS011;54596;43.216;27.904;2023-10-08T10:52:01;24.08;;;5.50;;
67798;SDS011;54596;43.216;27.904;2023-10-08T10:54:30;15.90;;;4.72;;
67798;SDS011;54596;43.216;27.904;2023-10-08T10:57:01;27.05;;;7.18;;
67798;SDS011;54596;43.216;27.904;2023-10-08T10:59:31;14.38;;;5.00;;
67798;SDS011;54596;43.216;27.904;2023-10-08T11:02:05;21.65;;;5.15;;
67798;SDS011;54596;43.216;27.904;2023-10-08T11:04:34;23.48;;;5.30;;
67798;SDS011;54596;43.216;27.904;2023-10-08T11:07:19;51.13;;;6.80;;
67798;SDS011;54596;43.216;27.904;2023-10-08T11:09:47;22.92;;;5.15;;
67798;SDS011;54596;43.216;27.904;2023-10-08T11:12:13;21.13;;;4.90;;
67798;SDS011;54596;43.216;27.904;2023-10-08T11:14:45;40.50;;;6.38;;
67798;SDS011;54596;43.216;27.904;2023-10-08T11:17:13;26.08;;;5.10;;
67798;SDS011;54596;43.216;27.904;2023-10-08T11:19:45;33.90;;;5.75;;
67798;SDS011;54596;43.216;27.904;2023-10-08T11:22:14;21.73;;;5.00;;
67798;SDS011;54596;43.216;27.904;2023-10-08T11:24:46;17.40;;;4.55;;
67798;SDS011;54596;43.216;27.904;2023-10-08T11:27:13;26.85;;;5.20;;
67798;SDS011;54596;43.216;27.904;2023-10-08T11:29:53;20.97;;;5.37;;
67798;SDS011;54596;43.216;27.904;2023-10-08T11:32:23;18.52;;;5.18;;
67798;SDS011;54596;43.216;27.904;2023-10-08T11:34:57;18.92;;;5.40;;
67798;SDS011;54596;43.216;27.904;2023-10-08T11:37:30;13.15;;;4.53;;
67798;SDS011;54596;43.216;27.904;2023-10-08T11:39:59;19.77;;;4.80;;
67798;SDS011;54596;43.216;27.904;2023-10-08T11:42:33;17.20;;;4.80;;
67798;SDS011;54596;43.216;27.904;2023-10-08T11:44:59;14.77;;;4.43;;
67798;SDS011;54596;43.216;27.904;2023-10-08T11:47:25;12.40;;;4.13;;
67798;SDS011;54596;43.216;27.904;2023-10-08T11:49:56;20.50;;;4.88;;
67798;SDS011;54596;43.216;27.904;2023-10-08T11:52:41;17.00;;;4.40;;
67798;SDS011;54596;43.216;27.904;2023-10-08T11:55:07;18.48;;;4.63;;
67798;SDS011;54596;43.216;27.904;2023-10-08T11:57:34;19.65;;;6.07;;
67798;SDS011;54596;43.216;27.904;2023-10-08T12:00:11;14.68;;;5.90;;
67798;SDS011;54596;43.216;27.904;2023-10-08T12:02:53;17.75;;;5.50;;
67798;SDS011;54596;43.216;27.904;2023-10-08T12:05:20;23.85;;;5.10;;
67798;SDS011;54596;43.216;27.904;2023-10-08T12:07:52;21.33;;;5.43;;
67798;SDS011;54596;43.216;27.904;2023-10-08T12:10:23;22.20;;;5.30;;
67798;SDS011;54596;43.216;27.904;2023-10-08T12:12:49;20.30;;;4.60;;
67798;SDS011;54596;43.216;27.904;2023-10-08T12:15:17;18.13;;;4.43;;
67798;SDS011;54596;43.216;27.904;2023-10-08T12:17:50;19.85;;;4.30;;
67798;SDS011;54596;43.216;27.904;2023-10-08T12:20:36;17.13;;;4.25;;
67798;SDS011;54596;43.216;27.904;2023-10-08T12:23:06;16.33;;;3.97;;
67798;SDS011;54596;43.216;27.904;2023-10-08T12:25:35;17.63;;;4.47;;
67798;SDS011;54596;43.216;27.904;2023-10-08T12:28:02;15.15;;;4.13;;
67798;SDS011;54596;43.216;27.904;2023-10-08T12:30:32;15.63;;;4.28;;
67798;SDS011;54596;43.216;27.904;2023-10-08T12:33:06;16.02;;;4.93;;
67798;SDS011;54596;43.216;27.904;2023-10-08T12:35:32;24.25;;;4.25;;
67798;SDS011;54596;43.216;27.904;2023-10-08T12:37:58;16.95;;;4.40;;
67798;SDS011;54596;43.216;27.904;2023-10-08T12:40:23;21.38;;;4.07;;
67798;SDS011;54596;43.216;27.904;2023-10-08T12:42:50;20.45;;;7.13;;
67798;SDS011;54596;43.216;27.904;2023-10-08T12:45:15;23.42;;;5.80;;
67798;SDS011;54596;43.216;27.904;2023-10-08T12:47:54;22.10;;;5.22;;
67798;SDS011;54596;43.216;27.904;2023-10-08T12:50:20;20.45;;;6.05;;
67798;SDS011;54596;43.216;27.904;2023-10-08T12:52:54;23.35;;;5.82;;
67798;SDS011;54596;43.216;27.904;2023-10-08T12:55:21;17.77;;;4.80;;
67798;SDS011;54596;43.216;27.904;2023-10-08T12:57:51;15.85;;;4.22;;
67798;SDS011;54596;43.216;27.904;2023-10-08T13:00:21;27.60;;;4.70;;
67798;SDS011;54596;43.216;27.904;2023-10-08T13:02:49;17.00;;;3.97;;
67798;SDS011;54596;43.216;27.904;2023-10-08T13:05:19;23.65;;;4.10;;
67798;SDS011;54596;43.216;27.904;2023-10-08T13:07:54;20.75;;;3.97;;
67798;SDS011;54596;43.216;27.904;2023-10-08T13:10:28;25.58;;;4.18;;
67798;SDS011;54596;43.216;27.904;2023-10-08T13:12:56;18.33;;;4.00;;
67798;SDS011;54596;43.216;27.904;2023-10-08T13:15:21;20.63;;;3.65;;
67798;SDS011;54596;43.216;27.904;2023-10-08T13:17:50;31.77;;;4.68;;
67798;SDS011;54596;43.216;27.904;2023-10-08T13:20:16;19.40;;;3.90;;
67798;SDS011;54596;43.216;27.904;2023-10-08T13:22:42;18.65;;;4.30;;
67798;SDS011;54596;43.216;27.904;2023-10-08T13:25:11;17.50;;;3.72;;
67798;SDS011;54596;43.216;27.904;2023-10-08T13:27:38;31.35;;;4.50;;
67798;SDS011;54596;43.216;27.904;2023-10-08T13:30:06;23.77;;;4.15;;
67798;SDS011;54596;43.216;27.904;2023-10-08T13:32:34;44.95;;;5.50;;
67798;SDS011;54596;43.216;27.904;2023-10-08T13:35:02;22.33;;;4.00;;
67798;SDS011;54596;43.216;27.904;2023-10-08T13:37:29;16.88;;;3.80;;
67798;SDS011;54596;43.216;27.904;2023-10-08T13:39:56;21.88;;;4.32;;
67798;SDS011;54596;43.216;27.904;2023-10-08T13:42:22;20.52;;;3.95;;
67798;SDS011;54596;43.216;27.904;2023-10-08T13:44:47;15.77;;;3.97;;
67798;SDS011;54596;43.216;27.904;2023-10-08T13:47:13;18.67;;;4.10;;
67798;SDS011;54596;43.216;27.904;2023-10-08T13:49:40;19.27;;;3.92;;
67798;SDS011;54596;43.216;27.904;2023-10-08T13:52:08;19.48;;;4.15;;
67798;SDS011;54596;43.216;27.904;2023-10-08T13:54:34;23.55;;;4.18;;
67798;SDS011;54596;43.216;27.904;2023-10-08T13:57:04;23.70;;;4.10;;
67798;SDS011;54596;43.216;27.904;2023-10-08T13:59:33;46.08;;;5.85;;
67798;SDS011;54596;43.216;27.904;2023-10-08T14:02:00;27.80;;;4.28;;
67798;SDS011;54596;43.216;27.904;2023-10-08T14:04:27;43.33;;;5.95;;
67798;SDS011;54596;43.216;27.904;2023-10-08T14:06:55;21.35;;;5.15;;
67798;SDS011;54596;43.216;27.904;2023-10-08T14:09:23;25.20;;;5.70;;
67798;SDS011;54596;43.216;27.904;2023-10-08T14:12:01;19.58;;;4.63;;
67798;SDS011;54596;43.216;27.904;2023-10-08T14:14:27;18.63;;;4.32;;
67798;SDS011;54596;43.216;27.904;2023-10-08T14:16:55;26.55;;;4.72;;
67798;SDS011;54596;43.216;27.904;2023-10-08T14:19:25;21.42;;;5.05;;
67798;SDS011;54596;43.216;27.904;2023-10-08T14:22:01;29.50;;;4.97;;
67798;SDS011;54596;43.216;27.904;2023-10-08T14:24:30;16.98;;;4.53;;
67798;SDS011;54596;43.216;27.904;2023-10-08T14:27:00;24.25;;;5.60;;
67798;SDS011;54596;43.216;27.904;2023-10-08T14:29:31;20.35;;;5.28;;
67798;SDS011;54596;43.216;27.904;2023-10-08T14:31:59;34.00;;;5.68;;
67798;SDS011;54596;43.216;27.904;2023-10-08T14:34:24;33.22;;;5.90;;
67798;SDS011;54596;43.216;27.904;2023-10-08T14:37:09;36.88;;;5.88;;
67798;SDS011;54596;43.216;27.904;2023-10-08T14:39:53;29.83;;;5.03;;
67798;SDS011;54596;43.216;27.904;2023-10-08T14:42:38;31.50;;;5.68;;
67798;SDS011;54596;43.216;27.904;2023-10-08T14:45:20;29.45;;;5.75;;
67798;SDS011;54596;43.216;27.904;2023-10-08T14:47:55;31.80;;;6.15;;
67798;SDS011;54596;43.216;27.904;2023-10-08T14:50:22;30.13;;;5.30;;
67798;SDS011;54596;43.216;27.904;2023-10-08T14:52:48;26.17;;;5.38;;
67798;SDS011;54596;43.216;27.904;2023-10-08T14:55:15;32.60;;;4.82;;
67798;SDS011;54596;43.216;27.904;2023-10-08T14:57:46;27.73;;;4.70;;
67798;SDS011;54596;43.216;27.904;2023-10-08T15:00:12;28.27;;;5.22;;
67798;SDS011;54596;43.216;27.904;2023-10-08T15:02:38;25.67;;;5.47;;
67798;SDS011;54596;43.216;27.904;2023-10-08T15:05:07;27.75;;;5.25;;